createdAt,value
2019-01-14T12:52:05.958Z,1005.1
2019-01-14T13:02:21.788Z,1005.6
2019-01-14T13:12:37.859Z,1006.3
2019-01-14T13:22:54.218Z,1006.1
2019-01-14T13:33:09.354Z,1006.1
2019-01-14T13:43:24.886Z,1006.2
2019-01-14T13:53:40.870Z,1006.3
2019-01-14T14:03:55.706Z,1006.5
2019-01-14T14:14:11.372Z,1006.5
2019-01-14T14:24:27.393Z,1006.7
2019-01-14T14:34:42.770Z,1007
2019-01-14T14:44:57.345Z,1007
2019-01-14T14:55:12.383Z,1007.1
2019-01-14T15:05:27.961Z,1007.2
2019-01-14T15:15:43.442Z,1007.2
2019-01-14T15:25:57.939Z,1007.4
2019-01-14T15:36:14.174Z,1007.5
2019-01-14T15:46:28.678Z,1007.7
2019-01-14T15:56:43.884Z,1007.9
2019-01-14T16:06:58.791Z,1008
2019-01-14T16:17:13.504Z,1008
2019-01-14T16:27:29.223Z,1008.3
2019-01-14T16:37:44.740Z,1008.3
2019-01-14T16:48:00.633Z,1008.5
2019-01-14T16:58:16.325Z,1008.7
2019-01-14T17:08:31.789Z,1008.7
2019-01-14T17:18:46.203Z,1008.7
2019-01-14T17:29:00.800Z,1008.8
2019-01-14T17:39:15.849Z,1008.9
2019-01-14T17:49:30.685Z,1009
2019-01-14T17:59:45.223Z,1009.2
2019-01-14T18:10:00.494Z,1009.4
2019-01-14T18:20:16.001Z,1009.5
2019-01-14T18:30:32.370Z,1009.6
2019-01-14T18:40:47.438Z,1009.8
2019-01-14T18:51:01.754Z,1009.9
2019-01-14T19:01:16.135Z,1010
2019-01-14T19:11:32.166Z,1010.2
2019-01-14T19:21:47.903Z,1010.3
2019-01-14T19:32:03.199Z,1010.3
2019-01-14T19:42:19.127Z,1010.4
2019-01-14T19:52:34.695Z,1010.5
2019-01-14T20:02:48.966Z,1010.6
2019-01-14T20:13:04.719Z,1010.8
2019-01-14T20:23:19.420Z,1011
2019-01-14T20:33:34.868Z,1010.9
2019-01-14T20:43:50.688Z,1011
2019-01-14T20:54:05.760Z,1010.9
2019-01-14T21:04:20.683Z,1010.9
2019-01-14T21:14:36.738Z,1011.1
2019-01-14T21:24:52.014Z,1011.2
2019-01-14T21:35:07.371Z,1011.2
2019-01-14T21:45:22.807Z,1011.1
2019-01-14T21:55:37.290Z,1011.2
2019-01-14T22:05:53.318Z,1011.2
2019-01-14T22:16:09.346Z,1011.3
2019-01-14T22:26:24.303Z,1011.5
2019-01-14T22:36:39.109Z,1011.5
2019-01-14T22:46:55.139Z,1011.5
2019-01-14T22:57:09.470Z,1011.4
2019-01-14T23:07:25.701Z,1011.3
2019-01-14T23:17:40.988Z,1011.4
2019-01-14T23:27:55.349Z,1011.4
2019-01-14T23:38:10.914Z,1011.5
2019-01-14T23:48:25.444Z,1011.5
2019-01-14T23:58:40.147Z,1011.5
